createdAt,value
2022-12-09T00:03:01.956Z,12.66
2022-12-09T00:08:03.994Z,12.67
2022-12-09T00:13:05.973Z,12.67
2022-12-09T00:18:08.292Z,12.70
2022-12-09T00:23:10.199Z,12.69
2022-12-09T00:28:11.897Z,12.65
2022-12-09T00:33:13.624Z,12.64
2022-12-09T00:38:15.248Z,12.65
2022-12-09T00:43:17.167Z,12.67
2022-12-09T00:48:25.724Z,12.66
2022-12-09T00:53:28.007Z,12.62
2022-12-09T00:58:29.773Z,12.52
2022-12-09T01:03:32.033Z,12.47
2022-12-09T01:08:38.348Z,12.45
2022-12-09T01:13:40.819Z,12.47
2022-12-09T01:18:42.823Z,12.50
2022-12-09T01:23:45.351Z,12.52
2022-12-09T01:28:51.284Z,12.49
2022-12-09T01:33:54.132Z,12.50
2022-12-09T01:38:57.134Z,12.43
2022-12-09T01:44:07.534Z,12.42
2022-12-09T01:49:11.966Z,12.44
2022-12-09T01:54:14.209Z,12.55
2022-12-09T01:59:16.516Z,12.54
2022-12-09T02:04:19.074Z,12.56
2022-12-09T02:09:21.417Z,12.53
2022-12-09T02:14:29.603Z,12.43
2022-12-09T02:19:35.054Z,12.42
2022-12-09T02:24:50.474Z,12.47
2022-12-09T02:30:03.077Z,12.49
2022-12-09T02:35:10.208Z,12.53
2022-12-09T02:40:34.097Z,12.49
2022-12-09T02:45:37.699Z,12.50
2022-12-09T02:50:41.175Z,12.49
2022-12-09T02:55:45.521Z,12.53
2022-12-09T03:00:47.980Z,12.58
2022-12-09T03:05:56.391Z,12.59
2022-12-09T03:11:03.049Z,12.55
2022-12-09T03:16:11.585Z,12.56
2022-12-09T03:21:15.243Z,12.56
2022-12-09T03:26:17.909Z,12.53
2022-12-09T03:31:23.104Z,12.56
2022-12-09T03:36:27.047Z,12.58
2022-12-09T03:41:30.358Z,12.62
2022-12-09T03:46:32.276Z,12.70
2022-12-09T03:51:40.507Z,12.68
2022-12-09T03:56:45.102Z,12.65
2022-12-09T04:01:47.266Z,12.64
2022-12-09T04:06:51.073Z,12.60
2022-12-09T04:11:53.060Z,12.50
2022-12-09T04:16:55.331Z,12.44
2022-12-09T04:21:57.584Z,12.35
2022-12-09T04:26:59.564Z,12.32
2022-12-09T04:32:01.356Z,12.30
2022-12-09T04:37:03.230Z,12.26
2022-12-09T04:42:05.141Z,12.19
2022-12-09T04:47:07.090Z,12.10
2022-12-09T04:52:09.259Z,11.96
2022-12-09T04:57:12.430Z,11.86
2022-12-09T05:02:14.449Z,11.77
2022-12-09T05:07:16.516Z,11.74
2022-12-09T05:12:18.951Z,11.74
2022-12-09T05:17:21.141Z,11.74
2022-12-09T05:22:23.342Z,11.74
2022-12-09T05:27:25.526Z,11.68
2022-12-09T05:32:30.629Z,11.54
2022-12-09T05:37:32.845Z,11.47
2022-12-09T05:42:40.946Z,11.38
2022-12-09T05:47:43.457Z,11.18
2022-12-09T05:52:45.587Z,11.11
2022-12-09T05:57:47.662Z,11.07
2022-12-09T06:02:49.522Z,10.97
2022-12-09T06:07:51.571Z,10.89
2022-12-09T06:12:54.830Z,10.83
2022-12-09T06:17:56.670Z,10.84
2022-12-09T06:22:58.894Z,10.90
2022-12-09T06:28:00.879Z,10.83
2022-12-09T06:33:03.180Z,10.71
2022-12-09T06:38:11.394Z,10.65
2022-12-09T06:43:13.903Z,10.57
2022-12-09T06:48:15.930Z,10.49
2022-12-09T06:53:18.830Z,10.47
2022-12-09T06:58:20.988Z,10.39
2022-12-09T07:03:23.450Z,10.36
2022-12-09T07:08:25.641Z,10.38
2022-12-09T07:18:17.480Z,9.89
2022-12-09T07:23:19.565Z,10.12
2022-12-09T07:28:21.574Z,10.13
2022-12-09T07:33:23.463Z,10.19
2022-12-09T07:38:27.030Z,10.27
2022-12-09T07:43:29.511Z,10.34
2022-12-09T07:48:31.307Z,10.36
2022-12-09T07:53:37.427Z,10.32
2022-12-09T07:58:39.103Z,10.33
2022-12-09T08:03:42.474Z,10.41
2022-12-09T08:08:45.383Z,10.48
2022-12-09T08:13:47.549Z,10.47
2022-12-09T08:18:50.630Z,10.55
2022-12-09T08:23:52.970Z,10.56
2022-12-09T08:28:55.730Z,10.68
2022-12-09T08:33:57.819Z,10.77
2022-12-09T08:39:01.500Z,10.91
2022-12-09T08:44:14.440Z,11.03
2022-12-09T08:49:19.046Z,11.24
2022-12-09T08:54:21.585Z,11.47
2022-12-09T08:59:26.209Z,11.72
2022-12-09T09:04:33.862Z,11.99
2022-12-09T09:09:35.791Z,12.18
2022-12-09T09:14:38.407Z,12.27
2022-12-09T09:19:40.892Z,12.37
2022-12-09T09:24:43.001Z,12.58
2022-12-09T09:29:45.097Z,12.84
2022-12-09T09:34:50.656Z,13.11
2022-12-09T09:39:52.750Z,13.29
2022-12-09T09:44:55.636Z,12.95
2022-12-09T09:50:19.715Z,12.74
2022-12-09T09:55:47.602Z,12.69
2022-12-09T10:01:13.343Z,12.98
2022-12-09T10:06:36.419Z,13.17
2022-12-09T10:12:04.885Z,13.13
2022-12-09T10:17:22.104Z,13.02
2022-12-09T10:22:30.685Z,13.20
2022-12-09T10:27:56.919Z,13.29
2022-12-09T10:32:58.789Z,13.25
2022-12-09T10:38:09.878Z,13.37
2022-12-09T10:43:35.261Z,13.52
2022-12-09T10:48:53.313Z,13.26
2022-12-09T10:54:01.773Z,13.09
2022-12-09T10:59:24.826Z,12.99
2022-12-09T11:04:32.911Z,13.04
2022-12-09T11:09:40.599Z,13.07
2022-12-09T11:14:52.686Z,13.11
2022-12-09T11:20:24.414Z,13.23
2022-12-09T11:25:36.318Z,13.24
2022-12-09T11:36:36.823Z,13.26
2022-12-09T11:42:11.436Z,13.13
2022-12-09T11:48:13.469Z,13.20
2022-12-09T11:53:30.622Z,13.21
2022-12-09T11:58:50.159Z,13.20
2022-12-09T12:04:05.868Z,13.35
2022-12-09T12:09:16.954Z,13.43
2022-12-09T12:14:27.638Z,13.51
2022-12-09T12:19:35.824Z,13.52
2022-12-09T12:24:49.987Z,13.49
2022-12-09T12:30:17.423Z,13.47
2022-12-09T12:35:21.909Z,13.26
2022-12-09T12:40:56.465Z,13.15
2022-12-09T12:46:17.805Z,13.25
2022-12-09T12:51:34.211Z,13.29
2022-12-09T12:56:47.714Z,13.27
2022-12-09T13:02:09.456Z,13.09
2022-12-09T13:07:33.335Z,12.97
2022-12-09T13:13:01.502Z,12.98
2022-12-09T13:18:09.162Z,12.98
2022-12-09T13:23:29.134Z,13.13
2022-12-09T13:28:39.071Z,13.26
2022-12-09T13:34:02.975Z,13.34
2022-12-09T13:39:05.218Z,13.29
2022-12-09T13:44:11.139Z,13.19
2022-12-09T13:49:26.814Z,13.13
2022-12-09T13:54:29.496Z,12.99
2022-12-09T13:59:52.080Z,12.90
2022-12-09T14:05:07.731Z,12.84
2022-12-09T14:10:43.737Z,12.82
2022-12-09T14:15:47.983Z,12.89
2022-12-09T14:21:18.716Z,12.94
2022-12-09T14:26:40.369Z,13.00
2022-12-09T14:31:55.479Z,13.09
2022-12-09T14:37:31.618Z,13.03
2022-12-09T14:42:51.600Z,12.99
2022-12-09T14:47:53.747Z,13.03
2022-12-09T14:53:03.195Z,13.02
2022-12-09T14:58:05.403Z,12.79
2022-12-09T15:03:44.947Z,12.64
2022-12-09T15:08:42.952Z,12.44
2022-12-09T15:13:47.974Z,12.32
2022-12-09T15:18:51.140Z,12.19
2022-12-09T15:23:53.152Z,12.03
2022-12-09T15:28:56.613Z,11.86
2022-12-09T15:34:07.989Z,11.70
2022-12-09T15:39:13.354Z,11.63
2022-12-09T15:44:19.365Z,11.59
2022-12-09T15:49:28.701Z,11.54
2022-12-09T15:54:36.394Z,11.41
2022-12-09T15:59:55.332Z,11.46
2022-12-09T16:05:00.480Z,11.43
2022-12-09T16:10:07.803Z,11.33
2022-12-09T16:15:12.665Z,11.25
2022-12-09T16:20:37.702Z,11.20
2022-12-09T16:25:46.004Z,11.19
2022-12-09T16:30:47.797Z,11.19
2022-12-09T16:36:02.578Z,11.23
2022-12-09T16:41:08.290Z,11.25
2022-12-09T16:46:12.883Z,11.23
2022-12-09T16:51:17.725Z,11.15
2022-12-09T16:56:26.032Z,11.12
2022-12-09T17:01:35.184Z,11.08
2022-12-09T17:06:36.773Z,10.99
2022-12-09T17:11:38.432Z,10.93
2022-12-09T17:16:40.029Z,10.96
2022-12-09T17:21:43.286Z,10.90
2022-12-09T17:26:44.899Z,10.78
2022-12-09T17:31:49.545Z,10.72
2022-12-09T17:36:51.353Z,10.70
2022-12-09T17:41:52.839Z,10.63
2022-12-09T17:46:55.485Z,10.59
2022-12-09T17:51:57.212Z,10.50
2022-12-09T17:56:58.786Z,10.47
2022-12-09T18:02:03.438Z,10.38
2022-12-09T18:07:05.142Z,10.32
2022-12-09T18:12:07.548Z,10.31
2022-12-09T18:17:09.197Z,10.28
2022-12-09T18:22:10.944Z,10.23
2022-12-09T18:27:12.510Z,10.17
2022-12-09T18:32:14.079Z,10.13
2022-12-09T18:37:15.560Z,10.08
2022-12-09T18:42:17.688Z,10.08
2022-12-09T18:47:19.327Z,10.00
2022-12-09T18:52:20.882Z,9.94
2022-12-09T18:57:27.496Z,9.97
2022-12-09T19:02:32.121Z,10.02
2022-12-09T19:07:33.678Z,9.99
2022-12-09T19:12:56.354Z,9.93
2022-12-09T19:17:56.868Z,9.94
2022-12-09T19:22:58.624Z,9.97
2022-12-09T19:28:00.163Z,10.00
2022-12-09T19:33:01.761Z,10.01
2022-12-09T19:38:03.323Z,10.01
2022-12-09T19:43:04.944Z,10.08
2022-12-09T19:48:07.002Z,10.09
2022-12-09T19:53:10.021Z,10.08
2022-12-09T19:58:11.638Z,10.04
2022-12-09T20:03:13.311Z,10.04
2022-12-09T20:08:15.000Z,10.09
2022-12-09T20:13:18.196Z,10.08
2022-12-09T20:18:20.912Z,10.04
2022-12-09T20:23:22.538Z,10.06
2022-12-09T20:28:24.061Z,10.07
2022-12-09T20:33:25.630Z,10.08
2022-12-09T20:38:27.145Z,10.08
2022-12-09T20:43:30.363Z,10.13
2022-12-09T20:48:31.915Z,10.04
2022-12-09T20:53:36.277Z,10.05
2022-12-09T20:58:38.514Z,10.10
2022-12-09T21:03:41.080Z,10.18
2022-12-09T21:08:43.694Z,10.20
2022-12-09T21:13:47.563Z,10.21
2022-12-09T21:18:50.700Z,10.22
2022-12-09T21:23:54.367Z,10.22
2022-12-09T21:28:58.226Z,10.25
2022-12-09T21:34:03.351Z,10.19
2022-12-09T21:39:06.959Z,10.28
2022-12-09T21:44:12.966Z,10.32
2022-12-09T21:49:14.767Z,10.38
2022-12-09T21:54:17.334Z,10.47
2022-12-09T21:59:19.216Z,10.48
2022-12-09T22:04:20.760Z,10.41
2022-12-09T22:09:27.706Z,10.44
2022-12-09T22:14:30.267Z,10.48
2022-12-09T22:19:31.849Z,10.50
2022-12-09T22:24:33.597Z,10.44
2022-12-09T22:29:35.494Z,10.42
2022-12-09T22:34:42.306Z,10.47
2022-12-09T22:39:45.244Z,10.49
2022-12-09T22:44:46.881Z,10.46
2022-12-09T22:49:48.401Z,10.40
2022-12-09T22:54:50.271Z,10.44
2022-12-09T22:59:51.850Z,10.57
2022-12-09T23:04:53.452Z,10.66
2022-12-09T23:09:57.571Z,10.61
2022-12-09T23:14:59.152Z,10.61
2022-12-09T23:20:00.728Z,10.46
2022-12-09T23:25:02.256Z,10.44
2022-12-09T23:30:06.077Z,10.45
2022-12-09T23:36:26.655Z,9.55
2022-12-09T23:41:28.780Z,10.51
2022-12-09T23:46:30.628Z,10.46
2022-12-09T23:51:34.457Z,10.41
2022-12-09T23:56:39.080Z,10.33
